sensor_id;sensor_type;location;lat;lon;timestamp;pressure;altitude;pressure_sealevel;temperature;humidity
63395;BME280;49531;-34.520;150.798;2022-11-18T00:01:11;100652.50;;;18.58;51.07
63395;BME280;49531;-34.520;150.798;2022-11-18T00:03:39;100645.31;;;18.64;51.01
63395;BME280;49531;-34.520;150.798;2022-11-18T00:06:11;100642.13;;;18.67;50.99
63395;BME280;49531;-34.520;150.798;2022-11-18T00:08:39;100644.31;;;18.70;51.02
63395;BME280;49531;-34.520;150.798;2022-11-18T00:11:09;100651.94;;;18.73;50.92
63395;BME280;49531;-34.520;150.798;2022-11-18T00:13:38;100642.00;;;18.79;50.86
63395;BME280;49531;-34.520;150.798;2022-11-18T00:16:17;100634.44;;;18.81;50.88
63395;BME280;49531;-34.520;150.798;2022-11-18T00:18:45;100646.38;;;18.85;50.79
63395;BME280;49531;-34.520;150.798;2022-11-18T00:21:13;100628.19;;;18.80;50.75
63395;BME280;49531;-34.520;150.798;2022-11-18T00:23:40;100638.34;;;18.90;50.65
63395;BME280;49531;-34.520;150.798;2022-11-18T00:26:12;100646.53;;;18.95;50.60
63395;BME280;49531;-34.520;150.798;2022-11-18T00:28:40;100643.56;;;18.96;50.47
63395;BME280;49531;-34.520;150.798;2022-11-18T00:31:09;100644.97;;;18.99;50.67
63395;BME280;49531;-34.520;150.798;2022-11-18T00:33:37;100639.28;;;19.01;50.31
63395;BME280;49531;-34.520;150.798;2022-11-18T00:36:06;100633.38;;;19.04;50.33
63395;BME280;49531;-34.520;150.798;2022-11-18T00:38:33;100633.13;;;19.05;50.26
63395;BME280;49531;-34.520;150.798;2022-11-18T00:41:03;100631.81;;;19.08;50.17
63395;BME280;49531;-34.520;150.798;2022-11-18T00:43:31;100625.06;;;19.10;50.12
63395;BME280;49531;-34.520;150.798;2022-11-18T00:45:58;100620.72;;;19.09;50.22
63395;BME280;49531;-34.520;150.798;2022-11-18T00:48:26;100621.84;;;19.13;50.14
63395;BME280;49531;-34.520;150.798;2022-11-18T00:50:56;100617.56;;;19.17;49.96
63395;BME280;49531;-34.520;150.798;2022-11-18T00:53:25;100613.78;;;19.18;50.06
63395;BME280;49531;-34.520;150.798;2022-11-18T00:55:53;100613.50;;;19.20;50.00
63395;BME280;49531;-34.520;150.798;2022-11-18T00:58:20;100614.63;;;19.24;50.05
63395;BME280;49531;-34.520;150.798;2022-11-18T01:00:50;100608.16;;;19.25;49.97
63395;BME280;49531;-34.520;150.798;2022-11-18T01:03:19;100596.81;;;19.28;49.99
63395;BME280;49531;-34.520;150.798;2022-11-18T01:05:47;100592.22;;;19.28;50.01
63395;BME280;49531;-34.520;150.798;2022-11-18T01:08:14;100582.75;;;19.31;50.11
63395;BME280;49531;-34.520;150.798;2022-11-18T01:10:41;100576.03;;;19.33;49.76
63395;BME280;49531;-34.520;150.798;2022-11-18T01:13:12;100583.06;;;19.35;50.04
63395;BME280;49531;-34.520;150.798;2022-11-18T01:15:49;100586.91;;;19.39;49.90
63395;BME280;49531;-34.520;150.798;2022-11-18T01:18:19;100591.81;;;19.42;49.88
63395;BME280;49531;-34.520;150.798;2022-11-18T01:20:46;100574.50;;;19.43;49.79
63395;BME280;49531;-34.520;150.798;2022-11-18T01:23:16;100582.38;;;19.44;49.93
63395;BME280;49531;-34.520;150.798;2022-11-18T01:25:45;100586.19;;;19.48;50.04
63395;BME280;49531;-34.520;150.798;2022-11-18T01:28:13;100576.19;;;19.49;49.94
63395;BME280;49531;-34.520;150.798;2022-11-18T01:30:41;100571.09;;;19.52;49.91
63395;BME280;49531;-34.520;150.798;2022-11-18T01:33:10;100572.75;;;19.53;49.96
63395;BME280;49531;-34.520;150.798;2022-11-18T01:35:40;100568.69;;;19.56;49.85
63395;BME280;49531;-34.520;150.798;2022-11-18T01:38:10;100568.44;;;19.57;50.03
63395;BME280;49531;-34.520;150.798;2022-11-18T01:40:39;100563.56;;;19.59;50.00
63395;BME280;49531;-34.520;150.798;2022-11-18T01:43:14;100549.50;;;19.62;49.82
63395;BME280;49531;-34.520;150.798;2022-11-18T01:45:43;100548.97;;;19.65;49.93
63395;BME280;49531;-34.520;150.798;2022-11-18T01:48:20;100544.69;;;19.70;49.57
63395;BME280;49531;-34.520;150.798;2022-11-18T01:51:00;100541.75;;;19.76;49.73
63395;BME280;49531;-34.520;150.798;2022-11-18T01:53:33;100531.47;;;19.78;50.17
63395;BME280;49531;-34.520;150.798;2022-11-18T01:56:05;100540.41;;;19.79;50.37
63395;BME280;49531;-34.520;150.798;2022-11-18T01:58:51;100535.34;;;19.87;50.40
63395;BME280;49531;-34.520;150.798;2022-11-18T02:01:20;100535.91;;;19.89;50.29
63395;BME280;49531;-34.520;150.798;2022-11-18T02:03:49;100533.22;;;19.94;50.60
63395;BME280;49531;-34.520;150.798;2022-11-18T02:06:16;100531.06;;;19.96;50.08
63395;BME280;49531;-34.520;150.798;2022-11-18T02:08:44;100532.69;;;19.97;50.38
63395;BME280;49531;-34.520;150.798;2022-11-18T02:11:14;100516.44;;;19.97;50.57
63395;BME280;49531;-34.520;150.798;2022-11-18T02:13:53;100520.78;;;19.98;50.81
63395;BME280;49531;-34.520;150.798;2022-11-18T02:16:25;100521.31;;;20.01;50.83
63395;BME280;49531;-34.520;150.798;2022-11-18T02:19:08;100524.56;;;20.03;50.85
63395;BME280;49531;-34.520;150.798;2022-11-18T02:21:55;100519.72;;;20.05;50.66
63395;BME280;49531;-34.520;150.798;2022-11-18T02:24:40;100512.94;;;20.07;50.79
63395;BME280;49531;-34.520;150.798;2022-11-18T02:27:46;100508.06;;;20.09;50.82
63395;BME280;49531;-34.520;150.798;2022-11-18T02:30:11;100507.25;;;20.09;50.87
63395;BME280;49531;-34.520;150.798;2022-11-18T02:32:47;100506.75;;;20.12;50.76
63395;BME280;49531;-34.520;150.798;2022-11-18T02:35:42;100511.63;;;20.15;50.50
63395;BME280;49531;-34.520;150.798;2022-11-18T02:38:17;100493.47;;;20.15;50.47
63395;BME280;49531;-34.520;150.798;2022-11-18T02:40:55;100504.63;;;20.19;50.37
63395;BME280;49531;-34.520;150.798;2022-11-18T02:43:33;100485.06;;;20.17;50.42
63395;BME280;49531;-34.520;150.798;2022-11-18T02:46:07;100475.31;;;20.16;50.53
63395;BME280;49531;-34.520;150.798;2022-11-18T02:48:39;100479.41;;;20.23;50.37
63395;BME280;49531;-34.520;150.798;2022-11-18T02:51:09;100488.91;;;20.26;50.35
63395;BME280;49531;-34.520;150.798;2022-11-18T02:53:39;100479.72;;;20.27;50.40
63395;BME280;49531;-34.520;150.798;2022-11-18T02:56:08;100477.56;;;20.29;50.49
63395;BME280;49531;-34.520;150.798;2022-11-18T02:58:36;100474.84;;;20.29;50.60
63395;BME280;49531;-34.520;150.798;2022-11-18T03:01:03;100469.97;;;20.31;50.62
63395;BME280;49531;-34.520;150.798;2022-11-18T03:03:34;100461.56;;;20.33;50.57
63395;BME280;49531;-34.520;150.798;2022-11-18T03:06:09;100448.78;;;20.28;50.50
63395;BME280;49531;-34.520;150.798;2022-11-18T03:08:46;100457.50;;;20.35;50.47
63395;BME280;49531;-34.520;150.798;2022-11-18T03:11:18;100448.81;;;20.33;50.50
63395;BME280;49531;-34.520;150.798;2022-11-18T03:14:13;100462.94;;;20.40;50.58
63395;BME280;49531;-34.520;150.798;2022-11-18T03:16:59;100452.91;;;20.41;50.47
63395;BME280;49531;-34.520;150.798;2022-11-18T03:19:52;100460.53;;;20.44;50.44
63395;BME280;49531;-34.520;150.798;2022-11-18T03:22:25;100461.91;;;20.46;50.52
63395;BME280;49531;-34.520;150.798;2022-11-18T03:25:01;100452.69;;;20.47;50.53
63395;BME280;49531;-34.520;150.798;2022-11-18T03:27:35;100445.63;;;20.46;50.61
63395;BME280;49531;-34.520;150.798;2022-11-18T03:30:08;100453.22;;;20.49;50.52
63395;BME280;49531;-34.520;150.798;2022-11-18T03:32:40;100452.97;;;20.51;50.69
63395;BME280;49531;-34.520;150.798;2022-11-18T03:35:15;100448.09;;;20.53;50.76
63395;BME280;49531;-34.520;150.798;2022-11-18T03:37:45;100464.38;;;20.53;50.74
63395;BME280;49531;-34.520;150.798;2022-11-18T03:40:21;100462.75;;;20.57;50.93
63395;BME280;49531;-34.520;150.798;2022-11-18T03:42:53;100451.06;;;20.56;50.97
63395;BME280;49531;-34.520;150.798;2022-11-18T03:45:33;100448.09;;;20.58;50.98
63395;BME280;49531;-34.520;150.798;2022-11-18T03:48:13;100444.31;;;20.59;50.91
63395;BME280;49531;-34.520;150.798;2022-11-18T03:50:46;100438.63;;;20.60;50.86
63395;BME280;49531;-34.520;150.798;2022-11-18T03:53:16;100445.13;;;20.64;51.25
63395;BME280;49531;-34.520;150.798;2022-11-18T03:55:49;100445.13;;;20.64;51.29
63395;BME280;49531;-34.520;150.798;2022-11-18T03:58:29;100445.69;;;20.67;51.13
63395;BME280;49531;-34.520;150.798;2022-11-18T04:01:04;100441.06;;;20.67;51.26
63395;BME280;49531;-34.520;150.798;2022-11-18T04:03:35;100440.00;;;20.68;51.26
63395;BME280;49531;-34.520;150.798;2022-11-18T04:06:11;100440.81;;;20.69;51.26
63395;BME280;49531;-34.520;150.798;2022-11-18T04:08:43;100442.19;;;20.71;51.24
63395;BME280;49531;-34.520;150.798;2022-11-18T04:11:16;100437.56;;;20.72;51.16
63395;BME280;49531;-34.520;150.798;2022-11-18T04:14:05;100435.94;;;20.71;51.21
63395;BME280;49531;-34.520;150.798;2022-11-18T04:16:40;100443.28;;;20.75;51.28
63395;BME280;49531;-34.520;150.798;2022-11-18T04:19:07;100431.59;;;20.75;51.32
63395;BME280;49531;-34.520;150.798;2022-11-18T04:21:34;100418.28;;;20.68;51.33
63395;BME280;49531;-34.520;150.798;2022-11-18T04:24:01;100435.94;;;20.76;51.37
63395;BME280;49531;-34.520;150.798;2022-11-18T04:26:29;100439.72;;;20.80;51.38
63395;BME280;49531;-34.520;150.798;2022-11-18T04:28:56;100431.88;;;20.78;51.42
63395;BME280;49531;-34.520;150.798;2022-11-18T04:31:24;100434.84;;;20.82;51.43
63395;BME280;49531;-34.520;150.798;2022-11-18T04:33:51;100433.75;;;20.83;51.74
63395;BME280;49531;-34.520;150.798;2022-11-18T04:36:18;100423.47;;;20.90;51.95
63395;BME280;49531;-34.520;150.798;2022-11-18T04:38:45;100427.00;;;20.95;52.13
63395;BME280;49531;-34.520;150.798;2022-11-18T04:41:13;100431.88;;;20.98;52.05
63395;BME280;49531;-34.520;150.798;2022-11-18T04:43:40;100431.88;;;21.04;52.10
63395;BME280;49531;-34.520;150.798;2022-11-18T04:46:07;100429.44;;;21.07;52.02
63395;BME280;49531;-34.520;150.798;2022-11-18T04:48:35;100419.13;;;21.09;51.80
63395;BME280;49531;-34.520;150.798;2022-11-18T04:51:04;100424.56;;;21.14;51.92
63395;BME280;49531;-34.520;150.798;2022-11-18T04:53:32;100403.94;;;21.08;51.76
63395;BME280;49531;-34.520;150.798;2022-11-18T04:56:05;100414.25;;;21.21;51.79
63395;BME280;49531;-34.520;150.798;2022-11-18T04:58:33;100411.53;;;21.21;51.75
63395;BME280;49531;-34.520;150.798;2022-11-18T05:01:01;100425.38;;;21.25;51.69
63395;BME280;49531;-34.520;150.798;2022-11-18T05:03:28;100418.06;;;21.25;51.61
63395;BME280;49531;-34.520;150.798;2022-11-18T05:05:59;100413.72;;;21.29;51.62
63395;BME280;49531;-34.520;150.798;2022-11-18T05:08:27;100402.31;;;21.33;51.49
63395;BME280;49531;-34.520;150.798;2022-11-18T05:10:54;100416.44;;;21.35;51.45
63395;BME280;49531;-34.520;150.798;2022-11-18T05:13:41;100418.06;;;21.36;51.24
63395;BME280;49531;-34.520;150.798;2022-11-18T05:16:09;100416.69;;;21.38;51.17
63395;BME280;49531;-34.520;150.798;2022-11-18T05:18:36;100423.50;;;21.30;50.66
63395;BME280;49531;-34.520;150.798;2022-11-18T05:21:05;100418.59;;;21.17;50.12
63395;BME280;49531;-34.520;150.798;2022-11-18T05:23:32;100418.31;;;21.14;50.68
63395;BME280;49531;-34.520;150.798;2022-11-18T05:26:07;100410.97;;;21.19;50.48
63395;BME280;49531;-34.520;150.798;2022-11-18T05:28:36;100421.81;;;21.19;50.40
63395;BME280;49531;-34.520;150.798;2022-11-18T05:31:09;100416.69;;;21.18;50.29
63395;BME280;49531;-34.520;150.798;2022-11-18T05:33:38;100425.13;;;21.16;50.28
63395;BME280;49531;-34.520;150.798;2022-11-18T05:36:09;100415.31;;;21.05;50.07
63395;BME280;49531;-34.520;150.798;2022-11-18T05:38:37;100409.34;;;21.08;50.47
63395;BME280;49531;-34.520;150.798;2022-11-18T05:41:06;100418.31;;;21.04;50.94
63395;BME280;49531;-34.520;150.798;2022-11-18T05:43:34;100415.06;;;21.07;51.74
63395;BME280;49531;-34.520;150.798;2022-11-18T05:46:02;100407.44;;;21.04;51.94
63395;BME280;49531;-34.520;150.798;2022-11-18T05:48:30;100412.06;;;21.03;52.55
63395;BME280;49531;-34.520;150.798;2022-11-18T05:50:57;100414.22;;;20.91;52.34
63395;BME280;49531;-34.520;150.798;2022-11-18T05:53:25;100408.78;;;20.91;52.44
63395;BME280;49531;-34.520;150.798;2022-11-18T05:56:10;100418.03;;;20.95;52.32
63395;BME280;49531;-34.520;150.798;2022-11-18T05:58:42;100406.34;;;20.89;52.72
63395;BME280;49531;-34.520;150.798;2022-11-18T06:01:13;100406.63;;;20.93;52.46
63395;BME280;49531;-34.520;150.798;2022-11-18T06:03:43;100409.63;;;20.91;52.46
63395;BME280;49531;-34.520;150.798;2022-11-18T06:06:13;100405.56;;;20.79;52.64
63395;BME280;49531;-34.520;150.798;2022-11-18T06:08:49;100403.09;;;20.87;52.66
63395;BME280;49531;-34.520;150.798;2022-11-18T06:11:19;100401.75;;;20.95;52.27
63395;BME280;49531;-34.520;150.798;2022-11-18T06:13:57;100406.09;;;21.01;51.97
63395;BME280;49531;-34.520;150.798;2022-11-18T06:16:27;100402.03;;;21.04;52.17
63395;BME280;49531;-34.520;150.798;2022-11-18T06:19:02;100395.50;;;21.05;51.97
63395;BME280;49531;-34.520;150.798;2022-11-18T06:21:30;100399.59;;;21.07;51.86
63395;BME280;49531;-34.520;150.798;2022-11-18T06:23:57;100399.31;;;21.09;51.79
63395;BME280;49531;-34.520;150.798;2022-11-18T06:26:25;100404.19;;;21.12;51.77
63395;BME280;49531;-34.520;150.798;2022-11-18T06:28:54;100399.59;;;21.12;51.62
63395;BME280;49531;-34.520;150.798;2022-11-18T06:31:23;100394.44;;;21.16;51.51
63395;BME280;49531;-34.520;150.798;2022-11-18T06:33:50;100404.47;;;21.15;51.51
63395;BME280;49531;-34.520;150.798;2022-11-18T06:36:19;100406.91;;;21.17;51.59
63395;BME280;49531;-34.520;150.798;2022-11-18T06:38:46;100400.41;;;21.18;51.45
63395;BME280;49531;-34.520;150.798;2022-11-18T06:41:14;100398.50;;;21.18;51.33
63395;BME280;49531;-34.520;150.798;2022-11-18T06:43:41;100394.66;;;21.19;51.40
63395;BME280;49531;-34.520;150.798;2022-11-18T06:46:12;100400.09;;;21.19;51.31
63395;BME280;49531;-34.520;150.798;2022-11-18T06:48:53;100412.59;;;21.20;51.26
63395;BME280;49531;-34.520;150.798;2022-11-18T06:51:20;100403.94;;;21.18;51.05
63395;BME280;49531;-34.520;150.798;2022-11-18T06:53:48;100402.81;;;21.19;51.17
63395;BME280;49531;-34.520;150.798;2022-11-18T06:56:17;100402.03;;;21.19;51.11
63395;BME280;49531;-34.520;150.798;2022-11-18T06:58:45;100406.91;;;21.22;50.74
63395;BME280;49531;-34.520;150.798;2022-11-18T07:01:16;100396.88;;;21.22;50.93
63395;BME280;49531;-34.520;150.798;2022-11-18T07:03:45;100398.78;;;21.17;50.47
63395;BME280;49531;-34.520;150.798;2022-11-18T07:06:15;100396.88;;;21.17;50.40
63395;BME280;49531;-34.520;150.798;2022-11-18T07:08:44;100400.09;;;21.19;50.13
63395;BME280;49531;-34.520;150.798;2022-11-18T07:11:14;100401.72;;;21.20;50.14
63395;BME280;49531;-34.520;150.798;2022-11-18T07:13:42;100399.00;;;21.20;50.22
63395;BME280;49531;-34.520;150.798;2022-11-18T07:16:12;100400.09;;;21.19;50.09
63395;BME280;49531;-34.520;150.798;2022-11-18T07:18:41;100405.00;;;21.22;50.01
63395;BME280;49531;-34.520;150.798;2022-11-18T07:21:14;100402.56;;;21.21;50.12
63395;BME280;49531;-34.520;150.798;2022-11-18T07:23:42;100411.53;;;21.21;50.07
63395;BME280;49531;-34.520;150.798;2022-11-18T07:26:10;100411.53;;;21.21;49.66
63395;BME280;49531;-34.520;150.798;2022-11-18T07:28:38;100411.78;;;21.20;49.90
63395;BME280;49531;-34.520;150.798;2022-11-18T07:31:08;100411.78;;;21.20;49.92
63395;BME280;49531;-34.520;150.798;2022-11-18T07:33:37;100412.59;;;21.20;49.85
63395;BME280;49531;-34.520;150.798;2022-11-18T07:36:09;100419.09;;;21.19;49.81
63395;BME280;49531;-34.520;150.798;2022-11-18T07:38:38;100413.16;;;21.17;49.94
63395;BME280;49531;-34.520;150.798;2022-11-18T07:41:10;100424.03;;;21.17;49.93
63395;BME280;49531;-34.520;150.798;2022-11-18T07:43:38;100414.78;;;21.18;50.00
63395;BME280;49531;-34.520;150.798;2022-11-18T07:46:15;100424.56;;;21.14;49.87
63395;BME280;49531;-34.520;150.798;2022-11-18T07:48:45;100425.13;;;21.16;49.90
63395;BME280;49531;-34.520;150.798;2022-11-18T07:51:14;100419.69;;;21.16;50.05
63395;BME280;49531;-34.520;150.798;2022-11-18T07:53:42;100427.84;;;21.16;50.07
63395;BME280;49531;-34.520;150.798;2022-11-18T07:56:11;100421.31;;;21.12;50.10
63395;BME280;49531;-34.520;150.798;2022-11-18T07:58:40;100433.53;;;21.15;50.06
63395;BME280;49531;-34.520;150.798;2022-11-18T08:01:10;100440.59;;;21.16;49.88
63395;BME280;49531;-34.520;150.798;2022-11-18T08:03:39;100430.00;;;21.14;50.15
63395;BME280;49531;-34.520;150.798;2022-11-18T08:06:09;100439.22;;;21.13;50.09
63395;BME280;49531;-34.520;150.798;2022-11-18T08:08:38;100432.16;;;21.12;50.18
63395;BME280;49531;-34.520;150.798;2022-11-18T08:11:09;100431.34;;;21.12;50.19
63395;BME280;49531;-34.520;150.798;2022-11-18T08:13:37;100433.25;;;21.11;50.13
63395;BME280;49531;-34.520;150.798;2022-11-18T08:16:10;100432.72;;;21.04;50.17
63395;BME280;49531;-34.520;150.798;2022-11-18T08:18:39;100435.16;;;21.11;50.12
63395;BME280;49531;-34.520;150.798;2022-11-18T08:21:06;100446.56;;;21.08;50.01
63395;BME280;49531;-34.520;150.798;2022-11-18T08:23:34;100440.56;;;21.01;50.16
63395;BME280;49531;-34.520;150.798;2022-11-18T08:26:05;100449.53;;;21.06;50.03
63395;BME280;49531;-34.520;150.798;2022-11-18T08:28:33;100457.69;;;21.06;49.97
63395;BME280;49531;-34.520;150.798;2022-11-18T08:31:11;100454.69;;;21.03;49.90
63395;BME280;49531;-34.520;150.798;2022-11-18T08:33:40;100456.31;;;21.04;49.99
63395;BME280;49531;-34.520;150.798;2022-11-18T08:36:11;100459.31;;;21.02;50.06
63395;BME280;49531;-34.520;150.798;2022-11-18T08:38:40;100457.69;;;21.01;50.04
63395;BME280;49531;-34.520;150.798;2022-11-18T08:41:14;100465.00;;;21.01;50.04
63395;BME280;49531;-34.520;150.798;2022-11-18T08:43:42;100469.63;;;21.00;49.91
63395;BME280;49531;-34.520;150.798;2022-11-18T08:46:10;100469.09;;;20.98;50.11
63395;BME280;49531;-34.520;150.798;2022-11-18T08:48:38;100468.25;;;20.97;49.98
63395;BME280;49531;-34.520;150.798;2022-11-18T08:51:07;100473.69;;;20.97;50.02
63395;BME280;49531;-34.520;150.798;2022-11-18T08:53:35;100477.22;;;20.98;50.25
63395;BME280;49531;-34.520;150.798;2022-11-18T08:56:03;100474.78;;;20.96;49.97
63395;BME280;49531;-34.520;150.798;2022-11-18T08:58:31;100481.28;;;20.95;49.99
63395;BME280;49531;-34.520;150.798;2022-11-18T09:01:04;100477.75;;;20.95;50.11
63395;BME280;49531;-34.520;150.798;2022-11-18T09:03:32;100478.84;;;20.94;50.16
63395;BME280;49531;-34.520;150.798;2022-11-18T09:06:09;100477.22;;;20.93;50.01
63395;BME280;49531;-34.520;150.798;2022-11-18T09:08:37;100478.56;;;20.90;50.23
63395;BME280;49531;-34.520;150.798;2022-11-18T09:11:12;100477.47;;;20.91;50.17
63395;BME280;49531;-34.520;150.798;2022-11-18T09:13:40;100481.28;;;20.90;50.22
63395;BME280;49531;-34.520;150.798;2022-11-18T09:16:08;100484.00;;;20.90;50.11
63395;BME280;49531;-34.520;150.798;2022-11-18T09:18:36;100479.66;;;20.89;50.24
63395;BME280;49531;-34.520;150.798;2022-11-18T09:21:06;100484.25;;;20.89;50.21
63395;BME280;49531;-34.520;150.798;2022-11-18T09:23:35;100483.72;;;20.87;50.29
63395;BME280;49531;-34.520;150.798;2022-11-18T09:26:06;100477.47;;;20.86;50.26
63395;BME280;49531;-34.520;150.798;2022-11-18T09:28:35;100492.94;;;20.86;50.26
63395;BME280;49531;-34.520;150.798;2022-11-18T09:31:08;100485.88;;;20.85;50.33
63395;BME280;49531;-34.520;150.798;2022-11-18T09:33:37;100494.28;;;20.83;50.36
63395;BME280;49531;-34.520;150.798;2022-11-18T09:36:15;100496.19;;;20.83;50.39
63395;BME280;49531;-34.520;150.798;2022-11-18T09:38:43;100493.75;;;20.81;50.45
63395;BME280;49531;-34.520;150.798;2022-11-18T09:41:32;100496.47;;;20.81;50.47
63395;BME280;49531;-34.520;150.798;2022-11-18T09:47:19;100491.84;;;20.77;50.55
63395;BME280;49531;-34.520;150.798;2022-11-18T09:49:51;100505.16;;;20.78;50.38
63395;BME280;49531;-34.520;150.798;2022-11-18T09:52:27;100498.38;;;20.76;50.62
63395;BME280;49531;-34.520;150.798;2022-11-18T09:54:56;100496.47;;;20.76;50.45
63395;BME280;49531;-34.520;150.798;2022-11-18T09:57:38;100495.91;;;20.74;50.71
63395;BME280;49531;-34.520;150.798;2022-11-18T10:00:18;100503.25;;;20.74;50.57
63395;BME280;49531;-34.520;150.798;2022-11-18T10:02:55;100503.50;;;20.72;50.75
63395;BME280;49531;-34.520;150.798;2022-11-18T10:05:26;100508.13;;;20.72;50.63
63395;BME280;49531;-34.520;150.798;2022-11-18T10:08:03;100518.16;;;20.71;50.78
63395;BME280;49531;-34.520;150.798;2022-11-18T10:10:47;100521.69;;;20.72;50.60
63395;BME280;49531;-34.520;150.798;2022-11-18T10:13:35;100511.63;;;20.67;50.81
63395;BME280;49531;-34.520;150.798;2022-11-18T10:16:23;100521.16;;;20.70;50.84
63395;BME280;49531;-34.520;150.798;2022-11-18T10:19:10;100518.69;;;20.68;50.83
63395;BME280;49531;-34.520;150.798;2022-11-18T10:24:42;100522.75;;;20.66;50.88
63395;BME280;49531;-34.520;150.798;2022-11-18T10:27:13;100531.16;;;20.64;50.81
63395;BME280;49531;-34.520;150.798;2022-11-18T10:29:42;100528.97;;;20.61;50.99
63395;BME280;49531;-34.520;150.798;2022-11-18T10:32:13;100532.50;;;20.61;50.94
63395;BME280;49531;-34.520;150.798;2022-11-18T10:34:48;100533.59;;;20.60;51.00
63395;BME280;49531;-34.520;150.798;2022-11-18T10:37:30;100533.59;;;20.60;51.03
63395;BME280;49531;-34.520;150.798;2022-11-18T10:40:00;100547.41;;;20.59;51.02
63395;BME280;49531;-34.520;150.798;2022-11-18T10:42:43;100554.75;;;20.58;50.96
63395;BME280;49531;-34.520;150.798;2022-11-18T10:45:27;100540.88;;;20.55;51.00
63395;BME280;49531;-34.520;150.798;2022-11-18T10:48:17;100542.53;;;20.56;50.92
63395;BME280;49531;-34.520;150.798;2022-11-18T10:50:48;100546.56;;;20.53;50.88
63395;BME280;49531;-34.520;150.798;2022-11-18T10:53:33;100543.88;;;20.53;51.11
63395;BME280;49531;-34.520;150.798;2022-11-18T10:56:03;100541.16;;;20.53;51.10
63395;BME280;49531;-34.520;150.798;2022-11-18T10:58:35;100537.63;;;20.53;51.16
63395;BME280;49531;-34.520;150.798;2022-11-18T11:01:19;100547.66;;;20.52;51.05
63395;BME280;49531;-34.520;150.798;2022-11-18T11:04:01;100554.44;;;20.50;51.14
63395;BME280;49531;-34.520;150.798;2022-11-18T11:06:33;100553.63;;;20.49;51.11
63395;BME280;49531;-34.520;150.798;2022-11-18T11:09:21;100552.25;;;20.47;51.04
63395;BME280;49531;-34.520;150.798;2022-11-18T11:12:01;100549.53;;;20.47;51.16
63395;BME280;49531;-34.520;150.798;2022-11-18T11:14:48;100543.28;;;20.46;51.05
63395;BME280;49531;-34.520;150.798;2022-11-18T11:17:29;100545.19;;;20.46;51.17
63395;BME280;49531;-34.520;150.798;2022-11-18T11:20:09;100544.63;;;20.44;51.16
63395;BME280;49531;-34.520;150.798;2022-11-18T11:22:40;100544.88;;;20.42;51.13
63395;BME280;49531;-34.520;150.798;2022-11-18T11:25:22;100539.72;;;20.41;50.97
63395;BME280;49531;-34.520;150.798;2022-11-18T11:28:02;100547.03;;;20.40;51.10
63395;BME280;49531;-34.520;150.798;2022-11-18T11:30:39;100538.09;;;20.40;51.14
63395;BME280;49531;-34.520;150.798;2022-11-18T11:33:25;100534.00;;;20.37;51.10
63395;BME280;49531;-34.520;150.798;2022-11-18T11:36:19;100524.25;;;20.36;51.32
63395;BME280;49531;-34.520;150.798;2022-11-18T11:39:00;100529.66;;;20.36;51.22
63395;BME280;49531;-34.520;150.798;2022-11-18T11:41:38;100531.56;;;20.36;51.28
63395;BME280;49531;-34.520;150.798;2022-11-18T11:44:28;100522.06;;;20.33;51.34
63395;BME280;49531;-34.520;150.798;2022-11-18T11:47:12;100512.53;;;20.30;51.28
63395;BME280;49531;-34.520;150.798;2022-11-18T11:50:07;100500.06;;;20.29;51.37
63395;BME280;49531;-34.520;150.798;2022-11-18T11:52:56;100492.19;;;20.28;51.51
63395;BME280;49531;-34.520;150.798;2022-11-18T11:55:36;100485.13;;;20.27;51.45
63395;BME280;49531;-34.520;150.798;2022-11-18T11:58:28;100490.00;;;20.25;51.62
63395;BME280;49531;-34.520;150.798;2022-11-18T12:01:18;100492.16;;;20.23;51.54
63395;BME280;49531;-34.520;150.798;2022-11-18T12:03:52;100484.28;;;20.21;51.69
63395;BME280;49531;-34.520;150.798;2022-11-18T12:06:23;100482.91;;;20.19;51.78
63395;BME280;49531;-34.520;150.798;2022-11-18T12:09:11;100486.72;;;20.18;51.68
63395;BME280;49531;-34.520;150.798;2022-11-18T12:11:53;100479.63;;;20.12;51.64
63395;BME280;49531;-34.520;150.798;2022-11-18T12:14:45;100481.81;;;20.15;51.69
63395;BME280;49531;-34.520;150.798;2022-11-18T12:17:27;100479.63;;;20.12;51.64
63395;BME280;49531;-34.520;150.798;2022-11-18T12:19:59;100483.41;;;20.11;51.82
63395;BME280;49531;-34.520;150.798;2022-11-18T12:25:51;100474.16;;;20.07;51.85
63395;BME280;49531;-34.520;150.798;2022-11-18T12:28:31;100471.97;;;20.04;51.77
63395;BME280;49531;-34.520;150.798;2022-11-18T12:31:29;100474.69;;;20.04;51.89
63395;BME280;49531;-34.520;150.798;2022-11-18T12:34:03;100481.19;;;20.03;51.75
63395;BME280;49531;-34.520;150.798;2022-11-18T12:36:37;100474.41;;;20.00;51.96
63395;BME280;49531;-34.520;150.798;2022-11-18T12:39:44;100479.00;;;19.99;51.98
63395;BME280;49531;-34.520;150.798;2022-11-18T12:42:07;100478.47;;;19.97;51.99
63395;BME280;49531;-34.520;150.798;2022-11-18T12:48:04;100471.41;;;19.91;52.11
63395;BME280;49531;-34.520;150.798;2022-11-18T12:50:54;100473.03;;;19.92;51.99
63395;BME280;49531;-34.520;150.798;2022-11-18T12:53:36;100471.66;;;19.90;52.06
63395;BME280;49531;-34.520;150.798;2022-11-18T12:56:20;100474.38;;;19.90;51.97
63395;BME280;49531;-34.520;150.798;2022-11-18T12:58:51;100479.22;;;19.88;52.14
63395;BME280;49531;-34.520;150.798;2022-11-18T13:01:22;100477.34;;;19.88;52.05
63395;BME280;49531;-34.520;150.798;2022-11-18T13:03:50;100473.00;;;19.87;52.12